sensor_id;sensor_type;location;lat;lon;timestamp;P1;durP1;ratioP1;P2;durP2;ratioP2
73791;SDS011;62122;41.112;16.694;2022-08-06T05:29:51;13.73;;;7.68;;
73791;SDS011;62122;41.112;16.694;2022-08-06T05:32:54;13.00;;;7.25;;
73791;SDS011;62122;41.112;16.694;2022-08-06T05:35:59;16.80;;;7.20;;
73791;SDS011;62122;41.112;16.694;2022-08-06T05:39:04;17.75;;;7.20;;
73791;SDS011;62122;41.112;16.694;2022-08-06T05:42:09;14.23;;;7.90;;
73791;SDS011;62122;41.112;16.694;2022-08-06T05:45:12;12.13;;;6.97;;
73791;SDS011;62122;41.112;16.694;2022-08-06T05:48:21;15.38;;;8.07;;
73791;SDS011;62122;41.112;16.694;2022-08-06T05:54:58;16.45;;;6.80;;
73791;SDS011;62122;41.112;16.694;2022-08-06T05:58:07;15.05;;;7.63;;
73791;SDS011;62122;41.112;16.694;2022-08-06T06:01:16;15.45;;;7.10;;
73791;SDS011;62122;41.112;16.694;2022-08-06T06:04:20;19.23;;;7.13;;
73791;SDS011;62122;41.112;16.694;2022-08-06T06:07:24;12.68;;;7.28;;
73791;SDS011;62122;41.112;16.694;2022-08-06T06:10:28;16.05;;;7.63;;
73791;SDS011;62122;41.112;16.694;2022-08-06T06:13:34;19.13;;;7.93;;
73791;SDS011;62122;41.112;16.694;2022-08-06T06:16:51;21.65;;;9.90;;
73791;SDS011;62122;41.112;16.694;2022-08-06T06:26:57;15.05;;;7.68;;
73791;SDS011;62122;41.112;16.694;2022-08-06T06:30:06;9.27;;;6.32;;
73791;SDS011;62122;41.112;16.694;2022-08-06T06:33:14;13.15;;;6.82;;
73791;SDS011;62122;41.112;16.694;2022-08-06T06:36:28;12.63;;;6.38;;
73791;SDS011;62122;41.112;16.694;2022-08-06T06:39:39;9.75;;;6.18;;
73791;SDS011;62122;41.112;16.694;2022-08-06T06:52:35;13.63;;;5.67;;
73791;SDS011;62122;41.112;16.694;2022-08-06T06:55:43;13.38;;;5.63;;
73791;SDS011;62122;41.112;16.694;2022-08-06T06:58:58;10.85;;;5.15;;
73791;SDS011;62122;41.112;16.694;2022-08-06T07:02:06;11.73;;;5.07;;
73791;SDS011;62122;41.112;16.694;2022-08-06T07:05:14;10.95;;;5.03;;
73791;SDS011;62122;41.112;16.694;2022-08-06T07:08:20;9.40;;;4.97;;
73791;SDS011;62122;41.112;16.694;2022-08-06T07:11:26;11.13;;;5.25;;
73791;SDS011;62122;41.112;16.694;2022-08-06T07:14:32;9.73;;;5.22;;
73791;SDS011;62122;41.112;16.694;2022-08-06T07:17:38;10.43;;;5.05;;
73791;SDS011;62122;41.112;16.694;2022-08-06T07:20:43;9.80;;;4.80;;
73791;SDS011;62122;41.112;16.694;2022-08-06T07:23:49;8.67;;;4.30;;
73791;SDS011;62122;41.112;16.694;2022-08-06T07:26:55;8.60;;;4.07;;
73791;SDS011;62122;41.112;16.694;2022-08-06T07:30:00;8.30;;;3.90;;
73791;SDS011;62122;41.112;16.694;2022-08-06T07:33:07;11.93;;;4.88;;
73791;SDS011;62122;41.112;16.694;2022-08-06T07:36:14;10.95;;;4.03;;
73791;SDS011;62122;41.112;16.694;2022-08-06T07:39:28;9.60;;;4.40;;
73791;SDS011;62122;41.112;16.694;2022-08-06T07:42:34;8.90;;;4.25;;
73791;SDS011;62122;41.112;16.694;2022-08-06T07:45:42;9.75;;;4.10;;
73791;SDS011;62122;41.112;16.694;2022-08-06T07:48:47;11.68;;;4.63;;
73791;SDS011;62122;41.112;16.694;2022-08-06T07:51:56;9.80;;;4.95;;
73791;SDS011;62122;41.112;16.694;2022-08-06T07:55:03;9.57;;;4.70;;
73791;SDS011;62122;41.112;16.694;2022-08-06T07:58:07;11.35;;;5.00;;
73791;SDS011;62122;41.112;16.694;2022-08-06T08:01:13;7.45;;;4.45;;
73791;SDS011;62122;41.112;16.694;2022-08-06T08:04:17;9.85;;;4.97;;
73791;SDS011;62122;41.112;16.694;2022-08-06T08:07:41;9.20;;;5.13;;
73791;SDS011;62122;41.112;16.694;2022-08-06T08:10:46;11.83;;;4.73;;
73791;SDS011;62122;41.112;16.694;2022-08-06T08:13:52;8.40;;;4.50;;
73791;SDS011;62122;41.112;16.694;2022-08-06T08:16:57;7.65;;;4.63;;
73791;SDS011;62122;41.112;16.694;2022-08-06T08:20:02;10.40;;;4.63;;
73791;SDS011;62122;41.112;16.694;2022-08-06T08:23:14;10.98;;;3.92;;
73791;SDS011;62122;41.112;16.694;2022-08-06T08:26:21;8.03;;;4.43;;
73791;SDS011;62122;41.112;16.694;2022-08-06T08:29:26;7.93;;;4.00;;
73791;SDS011;62122;41.112;16.694;2022-08-06T08:32:31;9.25;;;4.47;;
73791;SDS011;62122;41.112;16.694;2022-08-06T08:35:36;9.02;;;4.68;;
73791;SDS011;62122;41.112;16.694;2022-08-06T08:38:42;7.75;;;4.43;;
73791;SDS011;62122;41.112;16.694;2022-08-06T08:41:49;6.80;;;4.20;;
73791;SDS011;62122;41.112;16.694;2022-08-06T08:44:59;7.15;;;4.35;;
73791;SDS011;62122;41.112;16.694;2022-08-06T08:48:05;8.60;;;4.63;;
73791;SDS011;62122;41.112;16.694;2022-08-06T08:51:14;9.57;;;4.82;;
73791;SDS011;62122;41.112;16.694;2022-08-06T08:54:20;7.40;;;4.72;;
73791;SDS011;62122;41.112;16.694;2022-08-06T08:57:27;8.73;;;4.93;;
73791;SDS011;62122;41.112;16.694;2022-08-06T09:00:33;8.05;;;4.80;;
73791;SDS011;62122;41.112;16.694;2022-08-06T09:03:38;8.00;;;5.00;;
73791;SDS011;62122;41.112;16.694;2022-08-06T09:06:43;5.85;;;4.55;;
73791;SDS011;62122;41.112;16.694;2022-08-06T09:09:48;9.50;;;4.90;;
73791;SDS011;62122;41.112;16.694;2022-08-06T09:12:54;6.53;;;4.17;;
73791;SDS011;62122;41.112;16.694;2022-08-06T09:15:58;7.97;;;5.50;;
73791;SDS011;62122;41.112;16.694;2022-08-06T09:19:03;7.15;;;4.95;;
73791;SDS011;62122;41.112;16.694;2022-08-06T09:22:10;9.13;;;6.72;;
73791;SDS011;62122;41.112;16.694;2022-08-06T09:26:04;8.88;;;4.97;;
73791;SDS011;62122;41.112;16.694;2022-08-06T09:28:47;8.80;;;5.30;;
73791;SDS011;62122;41.112;16.694;2022-08-06T09:31:53;8.13;;;5.00;;
73791;SDS011;62122;41.112;16.694;2022-08-06T09:34:57;7.30;;;4.75;;
73791;SDS011;62122;41.112;16.694;2022-08-06T09:38:02;6.28;;;4.65;;
73791;SDS011;62122;41.112;16.694;2022-08-06T09:41:09;16.02;;;5.00;;
73791;SDS011;62122;41.112;16.694;2022-08-06T09:44:14;6.50;;;4.90;;
73791;SDS011;62122;41.112;16.694;2022-08-06T09:47:19;6.53;;;4.90;;
73791;SDS011;62122;41.112;16.694;2022-08-06T09:53:51;8.75;;;4.75;;
73791;SDS011;62122;41.112;16.694;2022-08-06T09:56:56;10.13;;;4.43;;
73791;SDS011;62122;41.112;16.694;2022-08-06T10:00:04;6.47;;;4.70;;
73791;SDS011;62122;41.112;16.694;2022-08-06T10:03:11;7.38;;;4.55;;
73791;SDS011;62122;41.112;16.694;2022-08-06T10:06:16;6.38;;;5.03;;
73791;SDS011;62122;41.112;16.694;2022-08-06T10:09:24;6.68;;;4.90;;
73791;SDS011;62122;41.112;16.694;2022-08-06T10:12:29;6.45;;;4.95;;
73791;SDS011;62122;41.112;16.694;2022-08-06T10:15:33;8.87;;;4.70;;
73791;SDS011;62122;41.112;16.694;2022-08-06T10:18:41;8.15;;;4.85;;
73791;SDS011;62122;41.112;16.694;2022-08-06T10:21:49;5.97;;;4.40;;
73791;SDS011;62122;41.112;16.694;2022-08-06T10:24:54;6.75;;;4.30;;
73791;SDS011;62122;41.112;16.694;2022-08-06T10:28:00;5.55;;;4.35;;
73791;SDS011;62122;41.112;16.694;2022-08-06T10:31:06;7.00;;;4.60;;
73791;SDS011;62122;41.112;16.694;2022-08-06T10:34:13;7.55;;;4.97;;
73791;SDS011;62122;41.112;16.694;2022-08-06T10:37:23;6.10;;;4.28;;
73791;SDS011;62122;41.112;16.694;2022-08-06T10:40:28;9.55;;;5.00;;
73791;SDS011;62122;41.112;16.694;2022-08-06T10:43:41;5.50;;;4.60;;
73791;SDS011;62122;41.112;16.694;2022-08-06T10:46:45;8.35;;;5.05;;
73791;SDS011;62122;41.112;16.694;2022-08-06T10:49:49;8.87;;;5.30;;
73791;SDS011;62122;41.112;16.694;2022-08-06T10:52:55;8.38;;;5.53;;
73791;SDS011;62122;41.112;16.694;2022-08-06T10:56:01;7.80;;;4.95;;
73791;SDS011;62122;41.112;16.694;2022-08-06T10:59:12;10.40;;;6.30;;
73791;SDS011;62122;41.112;16.694;2022-08-06T11:05:42;8.30;;;4.73;;
73791;SDS011;62122;41.112;16.694;2022-08-06T11:08:58;8.13;;;5.13;;
73791;SDS011;62122;41.112;16.694;2022-08-06T11:15:48;6.90;;;4.72;;
73791;SDS011;62122;41.112;16.694;2022-08-06T11:18:59;7.63;;;5.05;;
73791;SDS011;62122;41.112;16.694;2022-08-06T11:22:05;8.37;;;5.13;;
73791;SDS011;62122;41.112;16.694;2022-08-06T11:25:09;7.85;;;4.70;;
73791;SDS011;62122;41.112;16.694;2022-08-06T11:28:14;6.95;;;4.50;;
73791;SDS011;62122;41.112;16.694;2022-08-06T11:31:29;8.20;;;4.00;;
73791;SDS011;62122;41.112;16.694;2022-08-06T11:34:41;6.03;;;3.85;;
73791;SDS011;62122;41.112;16.694;2022-08-06T11:37:46;6.20;;;3.57;;
73791;SDS011;62122;41.112;16.694;2022-08-06T11:44:04;6.65;;;4.03;;
73791;SDS011;62122;41.112;16.694;2022-08-06T11:47:14;6.95;;;3.90;;
73791;SDS011;62122;41.112;16.694;2022-08-06T11:50:23;6.55;;;4.00;;
73791;SDS011;62122;41.112;16.694;2022-08-06T11:54:07;7.83;;;3.90;;
73791;SDS011;62122;41.112;16.694;2022-08-06T12:00:20;6.40;;;3.50;;
73791;SDS011;62122;41.112;16.694;2022-08-06T12:03:40;4.60;;;3.70;;
73791;SDS011;62122;41.112;16.694;2022-08-06T12:06:44;6.25;;;4.10;;
73791;SDS011;62122;41.112;16.694;2022-08-06T12:16:41;6.00;;;4.07;;
73791;SDS011;62122;41.112;16.694;2022-08-06T12:19:47;5.13;;;3.97;;
73791;SDS011;62122;41.112;16.694;2022-08-06T12:22:53;5.85;;;4.30;;
73791;SDS011;62122;41.112;16.694;2022-08-06T12:25:58;4.63;;;3.77;;
73791;SDS011;62122;41.112;16.694;2022-08-06T12:29:04;5.65;;;4.10;;
73791;SDS011;62122;41.112;16.694;2022-08-06T12:32:28;6.93;;;4.65;;
73791;SDS011;62122;41.112;16.694;2022-08-06T12:35:36;6.20;;;3.90;;
73791;SDS011;62122;41.112;16.694;2022-08-06T12:39:13;6.03;;;4.97;;
73791;SDS011;62122;41.112;16.694;2022-08-06T12:42:26;5.93;;;4.47;;
73791;SDS011;62122;41.112;16.694;2022-08-06T12:45:32;6.68;;;4.90;;
73791;SDS011;62122;41.112;16.694;2022-08-06T12:48:36;6.30;;;4.90;;
73791;SDS011;62122;41.112;16.694;2022-08-06T12:51:49;5.88;;;4.97;;
73791;SDS011;62122;41.112;16.694;2022-08-06T12:54:52;6.28;;;5.07;;
73791;SDS011;62122;41.112;16.694;2022-08-06T12:57:56;5.50;;;4.70;;
73791;SDS011;62122;41.112;16.694;2022-08-06T13:01:01;6.28;;;4.90;;
73791;SDS011;62122;41.112;16.694;2022-08-06T13:04:07;5.43;;;4.82;;
73791;SDS011;62122;41.112;16.694;2022-08-06T13:07:13;6.85;;;5.28;;
73791;SDS011;62122;41.112;16.694;2022-08-06T13:10:18;6.20;;;5.32;;
73791;SDS011;62122;41.112;16.694;2022-08-06T13:13:33;6.07;;;5.30;;
73791;SDS011;62122;41.112;16.694;2022-08-06T13:16:41;6.15;;;5.35;;
73791;SDS011;62122;41.112;16.694;2022-08-06T13:23:00;6.43;;;4.90;;
73791;SDS011;62122;41.112;16.694;2022-08-06T13:26:14;6.70;;;5.70;;
73791;SDS011;62122;41.112;16.694;2022-08-06T13:29:21;6.53;;;4.87;;
73791;SDS011;62122;41.112;16.694;2022-08-06T13:32:31;7.35;;;4.85;;
73791;SDS011;62122;41.112;16.694;2022-08-06T13:35:35;9.32;;;5.57;;
73791;SDS011;62122;41.112;16.694;2022-08-06T13:38:38;5.93;;;5.32;;
73791;SDS011;62122;41.112;16.694;2022-08-06T13:41:43;6.55;;;5.22;;
73791;SDS011;62122;41.112;16.694;2022-08-06T13:44:47;6.20;;;5.23;;
73791;SDS011;62122;41.112;16.694;2022-08-06T13:48:00;8.05;;;5.53;;
73791;SDS011;62122;41.112;16.694;2022-08-06T13:51:12;6.53;;;5.45;;
73791;SDS011;62122;41.112;16.694;2022-08-06T13:54:16;7.05;;;5.82;;
73791;SDS011;62122;41.112;16.694;2022-08-06T13:57:20;6.80;;;5.47;;
73791;SDS011;62122;41.112;16.694;2022-08-06T14:00:24;6.53;;;4.97;;
73791;SDS011;62122;41.112;16.694;2022-08-06T14:03:29;7.15;;;5.68;;
73791;SDS011;62122;41.112;16.694;2022-08-06T14:06:32;7.55;;;4.93;;
73791;SDS011;62122;41.112;16.694;2022-08-06T14:09:36;7.00;;;5.53;;
73791;SDS011;62122;41.112;16.694;2022-08-06T14:12:40;6.28;;;5.38;;
73791;SDS011;62122;41.112;16.694;2022-08-06T14:15:49;6.87;;;4.90;;
73791;SDS011;62122;41.112;16.694;2022-08-06T14:18:54;6.13;;;4.97;;
73791;SDS011;62122;41.112;16.694;2022-08-06T14:21:59;7.60;;;5.25;;
73791;SDS011;62122;41.112;16.694;2022-08-06T14:25:02;6.18;;;5.30;;
73791;SDS011;62122;41.112;16.694;2022-08-06T14:28:08;9.02;;;5.57;;
73791;SDS011;62122;41.112;16.694;2022-08-06T14:31:12;6.13;;;5.53;;
73791;SDS011;62122;41.112;16.694;2022-08-06T14:34:18;6.35;;;5.55;;
73791;SDS011;62122;41.112;16.694;2022-08-06T14:37:23;7.68;;;5.47;;
73791;SDS011;62122;41.112;16.694;2022-08-06T14:40:27;7.32;;;6.03;;
73791;SDS011;62122;41.112;16.694;2022-08-06T14:43:50;8.20;;;5.90;;
73791;SDS011;62122;41.112;16.694;2022-08-06T14:47:12;7.47;;;5.20;;
73791;SDS011;62122;41.112;16.694;2022-08-06T14:50:16;6.50;;;5.57;;
73791;SDS011;62122;41.112;16.694;2022-08-06T14:53:22;8.07;;;5.85;;
73791;SDS011;62122;41.112;16.694;2022-08-06T14:56:27;7.38;;;5.82;;
73791;SDS011;62122;41.112;16.694;2022-08-06T14:59:31;7.22;;;5.88;;
73791;SDS011;62122;41.112;16.694;2022-08-06T15:02:36;7.20;;;5.63;;
73791;SDS011;62122;41.112;16.694;2022-08-06T15:05:43;10.43;;;6.25;;
73791;SDS011;62122;41.112;16.694;2022-08-06T15:08:48;7.55;;;6.07;;
73791;SDS011;62122;41.112;16.694;2022-08-06T15:11:51;8.90;;;5.40;;
73791;SDS011;62122;41.112;16.694;2022-08-06T15:14:57;7.95;;;5.63;;
73791;SDS011;62122;41.112;16.694;2022-08-06T15:18:01;6.23;;;5.30;;
73791;SDS011;62122;41.112;16.694;2022-08-06T15:21:05;6.43;;;5.03;;
73791;SDS011;62122;41.112;16.694;2022-08-06T15:24:09;6.97;;;5.80;;
73791;SDS011;62122;41.112;16.694;2022-08-06T15:27:13;7.75;;;5.50;;
73791;SDS011;62122;41.112;16.694;2022-08-06T15:30:22;6.72;;;5.72;;
73791;SDS011;62122;41.112;16.694;2022-08-06T15:33:26;7.33;;;5.53;;
73791;SDS011;62122;41.112;16.694;2022-08-06T15:36:31;7.40;;;5.70;;
73791;SDS011;62122;41.112;16.694;2022-08-06T15:39:35;7.30;;;5.25;;
73791;SDS011;62122;41.112;16.694;2022-08-06T15:42:39;6.75;;;5.13;;
73791;SDS011;62122;41.112;16.694;2022-08-06T15:45:43;8.98;;;5.55;;
73791;SDS011;62122;41.112;16.694;2022-08-06T15:48:47;7.70;;;5.30;;
73791;SDS011;62122;41.112;16.694;2022-08-06T15:51:52;7.28;;;4.93;;
73791;SDS011;62122;41.112;16.694;2022-08-06T15:54:56;6.80;;;5.40;;
73791;SDS011;62122;41.112;16.694;2022-08-06T15:58:01;8.30;;;4.43;;
73791;SDS011;62122;41.112;16.694;2022-08-06T16:01:05;6.93;;;4.65;;
73791;SDS011;62122;41.112;16.694;2022-08-06T16:04:09;7.10;;;4.60;;
73791;SDS011;62122;41.112;16.694;2022-08-06T16:07:13;8.93;;;4.78;;
73791;SDS011;62122;41.112;16.694;2022-08-06T16:10:17;6.55;;;4.90;;
73791;SDS011;62122;41.112;16.694;2022-08-06T16:13:22;6.60;;;4.47;;
73791;SDS011;62122;41.112;16.694;2022-08-06T16:16:27;7.38;;;5.22;;
73791;SDS011;62122;41.112;16.694;2022-08-06T16:19:32;7.07;;;4.63;;
73791;SDS011;62122;41.112;16.694;2022-08-06T16:22:36;6.03;;;4.22;;
73791;SDS011;62122;41.112;16.694;2022-08-06T16:25:41;6.15;;;4.75;;
73791;SDS011;62122;41.112;16.694;2022-08-06T16:28:46;7.88;;;5.47;;
73791;SDS011;62122;41.112;16.694;2022-08-06T16:31:51;7.20;;;5.68;;
73791;SDS011;62122;41.112;16.694;2022-08-06T16:34:55;8.10;;;5.73;;
73791;SDS011;62122;41.112;16.694;2022-08-06T16:38:02;10.07;;;6.18;;
73791;SDS011;62122;41.112;16.694;2022-08-06T16:41:06;9.25;;;7.10;;
73791;SDS011;62122;41.112;16.694;2022-08-06T16:44:14;8.98;;;6.40;;
73791;SDS011;62122;41.112;16.694;2022-08-06T16:47:18;7.18;;;5.63;;
73791;SDS011;62122;41.112;16.694;2022-08-06T16:50:22;7.77;;;5.37;;
73791;SDS011;62122;41.112;16.694;2022-08-06T16:53:27;8.20;;;5.80;;
73791;SDS011;62122;41.112;16.694;2022-08-06T16:56:32;7.22;;;4.80;;
73791;SDS011;62122;41.112;16.694;2022-08-06T16:59:35;6.97;;;4.80;;
73791;SDS011;62122;41.112;16.694;2022-08-06T17:02:40;6.28;;;4.65;;
73791;SDS011;62122;41.112;16.694;2022-08-06T17:05:44;7.07;;;4.73;;
73791;SDS011;62122;41.112;16.694;2022-08-06T17:08:48;7.07;;;4.53;;
73791;SDS011;62122;41.112;16.694;2022-08-06T17:11:52;8.02;;;5.22;;
73791;SDS011;62122;41.112;16.694;2022-08-06T17:14:57;7.88;;;5.25;;
73791;SDS011;62122;41.112;16.694;2022-08-06T17:18:01;6.38;;;4.90;;
73791;SDS011;62122;41.112;16.694;2022-08-06T17:21:05;7.63;;;5.07;;
73791;SDS011;62122;41.112;16.694;2022-08-06T17:24:08;8.73;;;4.85;;
73791;SDS011;62122;41.112;16.694;2022-08-06T17:27:13;7.90;;;5.07;;
73791;SDS011;62122;41.112;16.694;2022-08-06T17:30:18;6.28;;;5.03;;
73791;SDS011;62122;41.112;16.694;2022-08-06T17:33:24;7.03;;;5.07;;
73791;SDS011;62122;41.112;16.694;2022-08-06T17:36:28;7.37;;;4.50;;
73791;SDS011;62122;41.112;16.694;2022-08-06T17:39:32;6.90;;;4.65;;
73791;SDS011;62122;41.112;16.694;2022-08-06T17:42:36;9.05;;;4.70;;
73791;SDS011;62122;41.112;16.694;2022-08-06T17:45:40;9.48;;;4.93;;
73791;SDS011;62122;41.112;16.694;2022-08-06T17:48:46;7.47;;;4.95;;
73791;SDS011;62122;41.112;16.694;2022-08-06T17:51:49;8.23;;;5.23;;
73791;SDS011;62122;41.112;16.694;2022-08-06T17:54:53;7.28;;;5.10;;
73791;SDS011;62122;41.112;16.694;2022-08-06T17:57:58;7.65;;;5.22;;
73791;SDS011;62122;41.112;16.694;2022-08-06T18:01:02;11.02;;;5.35;;
73791;SDS011;62122;41.112;16.694;2022-08-06T18:04:06;9.43;;;5.28;;
73791;SDS011;62122;41.112;16.694;2022-08-06T18:07:10;8.47;;;6.00;;
73791;SDS011;62122;41.112;16.694;2022-08-06T18:10:17;10.52;;;5.30;;
73791;SDS011;62122;41.112;16.694;2022-08-06T18:13:31;8.05;;;5.47;;
73791;SDS011;62122;41.112;16.694;2022-08-06T18:16:37;9.35;;;5.97;;
73791;SDS011;62122;41.112;16.694;2022-08-06T18:19:41;10.55;;;5.53;;
73791;SDS011;62122;41.112;16.694;2022-08-06T18:22:45;10.27;;;5.40;;
73791;SDS011;62122;41.112;16.694;2022-08-06T18:25:50;7.22;;;5.15;;
73791;SDS011;62122;41.112;16.694;2022-08-06T18:28:56;7.15;;;5.60;;
73791;SDS011;62122;41.112;16.694;2022-08-06T18:32:01;7.90;;;5.25;;
73791;SDS011;62122;41.112;16.694;2022-08-06T18:35:05;10.20;;;5.90;;
73791;SDS011;62122;41.112;16.694;2022-08-06T18:38:09;10.90;;;5.70;;
73791;SDS011;62122;41.112;16.694;2022-08-06T18:41:13;7.03;;;5.35;;
73791;SDS011;62122;41.112;16.694;2022-08-06T18:44:17;9.32;;;8.10;;
73791;SDS011;62122;41.112;16.694;2022-08-06T18:47:21;9.43;;;5.85;;
73791;SDS011;62122;41.112;16.694;2022-08-06T18:50:25;7.90;;;5.85;;
73791;SDS011;62122;41.112;16.694;2022-08-06T18:53:28;8.13;;;6.10;;
73791;SDS011;62122;41.112;16.694;2022-08-06T18:56:32;9.68;;;5.78;;
73791;SDS011;62122;41.112;16.694;2022-08-06T18:59:36;6.72;;;5.50;;
73791;SDS011;62122;41.112;16.694;2022-08-06T19:02:41;8.65;;;5.20;;
73791;SDS011;62122;41.112;16.694;2022-08-06T19:05:45;8.45;;;5.57;;
73791;SDS011;62122;41.112;16.694;2022-08-06T19:08:48;8.03;;;5.47;;
73791;SDS011;62122;41.112;16.694;2022-08-06T19:11:52;7.97;;;5.60;;
73791;SDS011;62122;41.112;16.694;2022-08-06T19:14:56;10.57;;;6.88;;
73791;SDS011;62122;41.112;16.694;2022-08-06T19:18:02;9.70;;;6.32;;
73791;SDS011;62122;41.112;16.694;2022-08-06T19:21:06;10.75;;;6.68;;
73791;SDS011;62122;41.112;16.694;2022-08-06T19:24:10;9.57;;;6.17;;
73791;SDS011;62122;41.112;16.694;2022-08-06T19:27:14;10.18;;;5.95;;
73791;SDS011;62122;41.112;16.694;2022-08-06T19:30:18;9.90;;;5.88;;
73791;SDS011;62122;41.112;16.694;2022-08-06T19:33:22;12.20;;;6.25;;
73791;SDS011;62122;41.112;16.694;2022-08-06T19:36:26;10.38;;;6.80;;
73791;SDS011;62122;41.112;16.694;2022-08-06T19:39:30;9.57;;;6.33;;
73791;SDS011;62122;41.112;16.694;2022-08-06T19:42:34;9.32;;;6.57;;
73791;SDS011;62122;41.112;16.694;2022-08-06T19:45:38;11.90;;;6.68;;
73791;SDS011;62122;41.112;16.694;2022-08-06T19:48:41;9.48;;;6.25;;
73791;SDS011;62122;41.112;16.694;2022-08-06T19:51:45;16.85;;;6.40;;
73791;SDS011;62122;41.112;16.694;2022-08-06T19:54:49;12.50;;;6.10;;
73791;SDS011;62122;41.112;16.694;2022-08-06T19:57:53;9.93;;;5.78;;
73791;SDS011;62122;41.112;16.694;2022-08-06T20:00:57;11.68;;;6.40;;
73791;SDS011;62122;41.112;16.694;2022-08-06T20:04:13;9.85;;;5.63;;
73791;SDS011;62122;41.112;16.694;2022-08-06T20:07:17;9.32;;;6.43;;
73791;SDS011;62122;41.112;16.694;2022-08-06T20:10:22;11.87;;;6.27;;
73791;SDS011;62122;41.112;16.694;2022-08-06T20:13:26;9.82;;;7.20;;
73791;SDS011;62122;41.112;16.694;2022-08-06T20:16:31;13.18;;;7.03;;
73791;SDS011;62122;41.112;16.694;2022-08-06T20:19:36;11.45;;;7.05;;
73791;SDS011;62122;41.112;16.694;2022-08-06T20:22:40;7.97;;;6.22;;
73791;SDS011;62122;41.112;16.694;2022-08-06T20:25:46;11.57;;;6.17;;
73791;SDS011;62122;41.112;16.694;2022-08-06T20:28:50;9.90;;;6.25;;
73791;SDS011;62122;41.112;16.694;2022-08-06T20:31:54;10.68;;;7.20;;
73791;SDS011;62122;41.112;16.694;2022-08-06T20:34:58;9.50;;;7.07;;
73791;SDS011;62122;41.112;16.694;2022-08-06T20:38:01;8.02;;;6.60;;
73791;SDS011;62122;41.112;16.694;2022-08-06T20:41:06;12.73;;;6.37;;
73791;SDS011;62122;41.112;16.694;2022-08-06T20:44:11;11.52;;;6.40;;
73791;SDS011;62122;41.112;16.694;2022-08-06T20:47:15;11.48;;;8.07;;
73791;SDS011;62122;41.112;16.694;2022-08-06T20:50:19;11.50;;;7.47;;
73791;SDS011;62122;41.112;16.694;2022-08-06T20:53:23;11.30;;;6.93;;
73791;SDS011;62122;41.112;16.694;2022-08-06T20:56:29;10.57;;;6.57;;
73791;SDS011;62122;41.112;16.694;2022-08-06T20:59:33;9.63;;;6.00;;
73791;SDS011;62122;41.112;16.694;2022-08-06T21:02:37;13.85;;;6.38;;
73791;SDS011;62122;41.112;16.694;2022-08-06T21:05:41;11.15;;;6.10;;
73791;SDS011;62122;41.112;16.694;2022-08-06T21:08:45;8.85;;;6.10;;
73791;SDS011;62122;41.112;16.694;2022-08-06T21:11:49;13.80;;;6.30;;
73791;SDS011;62122;41.112;16.694;2022-08-06T21:14:53;13.55;;;6.63;;
73791;SDS011;62122;41.112;16.694;2022-08-06T21:17:58;10.95;;;6.00;;
73791;SDS011;62122;41.112;16.694;2022-08-06T21:21:01;10.57;;;5.68;;
73791;SDS011;62122;41.112;16.694;2022-08-06T21:24:06;12.65;;;6.57;;
73791;SDS011;62122;41.112;16.694;2022-08-06T21:27:11;9.97;;;5.73;;
73791;SDS011;62122;41.112;16.694;2022-08-06T21:30:16;10.90;;;6.07;;
73791;SDS011;62122;41.112;16.694;2022-08-06T21:33:21;10.10;;;6.13;;
73791;SDS011;62122;41.112;16.694;2022-08-06T21:36:25;13.80;;;6.43;;
73791;SDS011;62122;41.112;16.694;2022-08-06T21:39:30;12.57;;;6.65;;
73791;SDS011;62122;41.112;16.694;2022-08-06T21:42:36;11.53;;;6.70;;
73791;SDS011;62122;41.112;16.694;2022-08-06T21:45:40;12.38;;;7.07;;
73791;SDS011;62122;41.112;16.694;2022-08-06T21:48:45;11.23;;;7.78;;
73791;SDS011;62122;41.112;16.694;2022-08-06T21:51:48;12.60;;;6.60;;
73791;SDS011;62122;41.112;16.694;2022-08-06T21:54:52;20.27;;;8.68;;
73791;SDS011;62122;41.112;16.694;2022-08-06T21:57:57;11.97;;;6.90;;
73791;SDS011;62122;41.112;16.694;2022-08-06T22:01:01;11.50;;;7.57;;
73791;SDS011;62122;41.112;16.694;2022-08-06T22:04:05;13.75;;;8.68;;
73791;SDS011;62122;41.112;16.694;2022-08-06T22:07:08;12.40;;;7.57;;
73791;SDS011;62122;41.112;16.694;2022-08-06T22:10:12;15.98;;;8.07;;
73791;SDS011;62122;41.112;16.694;2022-08-06T22:13:17;19.33;;;13.83;;
73791;SDS011;62122;41.112;16.694;2022-08-06T22:16:21;21.60;;;15.50;;
73791;SDS011;62122;41.112;16.694;2022-08-06T22:19:25;20.08;;;14.23;;
73791;SDS011;62122;41.112;16.694;2022-08-06T22:22:29;15.02;;;10.80;;
73791;SDS011;62122;41.112;16.694;2022-08-06T22:25:33;11.55;;;8.50;;
73791;SDS011;62122;41.112;16.694;2022-08-06T22:28:37;10.87;;;7.93;;
73791;SDS011;62122;41.112;16.694;2022-08-06T22:31:40;13.65;;;7.35;;
73791;SDS011;62122;41.112;16.694;2022-08-06T22:34:44;11.77;;;8.00;;
73791;SDS011;62122;41.112;16.694;2022-08-06T22:37:48;11.05;;;7.35;;
73791;SDS011;62122;41.112;16.694;2022-08-06T22:40:52;11.27;;;7.78;;
73791;SDS011;62122;41.112;16.694;2022-08-06T22:43:56;13.97;;;7.70;;
73791;SDS011;62122;41.112;16.694;2022-08-06T22:47:00;10.55;;;8.05;;
73791;SDS011;62122;41.112;16.694;2022-08-06T22:50:04;13.13;;;8.98;;
73791;SDS011;62122;41.112;16.694;2022-08-06T22:53:09;9.65;;;7.55;;
73791;SDS011;62122;41.112;16.694;2022-08-06T22:56:13;11.73;;;7.70;;
73791;SDS011;62122;41.112;16.694;2022-08-06T22:59:17;12.30;;;8.13;;
73791;SDS011;62122;41.112;16.694;2022-08-06T23:02:21;12.30;;;7.38;;
73791;SDS011;62122;41.112;16.694;2022-08-06T23:05:25;13.93;;;7.60;;
73791;SDS011;62122;41.112;16.694;2022-08-06T23:08:29;10.73;;;7.78;;
73791;SDS011;62122;41.112;16.694;2022-08-06T23:11:33;11.90;;;7.70;;
73791;SDS011;62122;41.112;16.694;2022-08-06T23:14:37;10.07;;;7.57;;
73791;SDS011;62122;41.112;16.694;2022-08-06T23:17:41;10.10;;;7.07;;
73791;SDS011;62122;41.112;16.694;2022-08-06T23:20:46;9.95;;;7.38;;
73791;SDS011;62122;41.112;16.694;2022-08-06T23:23:50;10.18;;;6.95;;
73791;SDS011;62122;41.112;16.694;2022-08-06T23:26:55;9.68;;;7.28;;
73791;SDS011;62122;41.112;16.694;2022-08-06T23:29:59;11.40;;;7.60;;
73791;SDS011;62122;41.112;16.694;2022-08-06T23:33:02;10.48;;;6.85;;
73791;SDS011;62122;41.112;16.694;2022-08-06T23:36:06;11.00;;;7.03;;
73791;SDS011;62122;41.112;16.694;2022-08-06T23:39:10;10.60;;;6.35;;
73791;SDS011;62122;41.112;16.694;2022-08-06T23:42:14;10.68;;;6.40;;
73791;SDS011;62122;41.112;16.694;2022-08-06T23:45:18;8.93;;;6.63;;
73791;SDS011;62122;41.112;16.694;2022-08-06T23:48:23;9.65;;;6.43;;
73791;SDS011;62122;41.112;16.694;2022-08-06T23:51:27;9.70;;;6.05;;
73791;SDS011;62122;41.112;16.694;2022-08-06T23:54:30;8.75;;;6.25;;
73791;SDS011;62122;41.112;16.694;2022-08-06T23:57:34;9.02;;;6.38;;
